Time;durP1;ratioP1;P1;durP2;ratioP2;P2;SDS_P1;SDS_P2;PMS_P1;PMS_P2;Temp;Humidity;BMP_temperature;BMP_pressure;BME280_temperature;BME280_humidity;BME280_pressure;Samples;Min_cycle;Max_cycle;Signal;HPM_P1;HPM_P2
2021/09/12 00:01:53;;;;;;;;;;;;;;;23.54;54.86;100845.69;5056063;28;1902;-45
2021/09/12 00:04:19;;;;;;;;;;;;;;;23.55;55.42;100844.66;5056570;28;1708;-45
2021/09/12 00:06:47;;;;;;;;;;;;;;;23.54;54.99;100845.69;5056900;28;1108;-44
2021/09/12 00:09:14;;;;;;;;;;;;;;;23.55;54.81;100825.75;5056922;28;1074;-45
2021/09/12 00:11:40;;;;;;;;;;;;;;;23.52;55.01;100822.56;5057163;28;1943;-45
2021/09/12 00:14:08;;;;;;;;;;;;;;;23.53;54.93;100824.25;5056565;28;1072;-45
2021/09/12 00:16:35;;;;;;;;;;;;;;;23.53;55.07;100832.34;5056484;28;1191;-44
2021/09/12 00:19:01;;;;;;;;;;;;;;;23.56;55.32;100837.44;5056379;28;1143;-44
2021/09/12 00:21:28;;;;;;;;;;;;;;;23.53;55.13;100826.94;5056398;28;1902;-45
2021/09/12 00:23:54;;;;;;;;;;;;;;;23.51;55.13;100835.19;5056370;28;1163;-44
2021/09/12 00:26:21;;;;;;;;;;;;;;;23.53;55.20;100829.63;5056680;28;1002;-44
2021/09/12 00:28:47;;;;;;;;;;;;;;;23.52;55.44;100836.91;5056604;28;1628;-44
2021/09/12 00:31:15;;;;;;;;;;;;;;;23.51;55.35;100828.97;5056725;28;1923;-45
2021/09/12 00:33:41;;;;;;;;;;;;;;;23.48;55.26;100821.22;5056064;28;1725;-45
2021/09/12 00:36:08;;;;;;;;;;;;;;;23.46;55.08;100821.38;5055883;28;1735;-45
2021/09/12 00:38:34;;;;;;;;;;;;;;;23.51;55.04;100821.69;5055231;28;2006;-44
2021/09/12 00:41:01;;;;;;;;;;;;;;;23.49;55.18;100825.59;5055610;28;1914;-44
2021/09/12 00:43:28;;;;;;;;;;;;;;;23.49;54.84;100826.41;5055240;28;1676;-45
2021/09/12 00:45:54;;;;;;;;;;;;;;;23.49;55.01;100815.63;5056522;28;1006;-45
2021/09/12 00:48:22;;;;;;;;;;;;;;;23.49;55.01;100821.03;5056455;28;1086;-44
2021/09/12 00:50:49;;;;;;;;;;;;;;;23.50;55.11;100811.09;5055670;28;1182;-44
2021/09/12 00:53:16;;;;;;;;;;;;;;;23.49;55.32;100809.38;5054986;28;1693;-44
2021/09/12 00:55:43;;;;;;;;;;;;;;;23.51;54.91;100823.56;5055203;28;1891;-44
2021/09/12 00:58:11;;;;;;;;;;;;;;;23.47;55.09;100812.25;5056027;28;1047;-45
2021/09/12 01:00:38;;;;;;;;;;;;;;;23.48;55.02;100818.50;5055969;28;1910;-44
2021/09/12 01:03:04;;;;;;;;;;;;;;;23.46;55.02;100807.88;5055441;28;1596;-45
2021/09/12 01:05:32;;;;;;;;;;;;;;;23.49;55.21;100806.69;5055600;28;1099;-45
2021/09/12 01:07:59;;;;;;;;;;;;;;;23.51;55.11;100826.25;5055932;28;1085;-45
2021/09/12 01:10:25;;;;;;;;;;;;;;;23.44;55.15;100815.28;5054559;28;1623;-46
2021/09/12 01:12:52;;;;;;;;;;;;;;;23.50;55.15;100824.59;5054940;28;1731;-45
2021/09/12 01:15:20;;;;;;;;;;;;;;;23.47;55.28;100816.81;5055946;28;1785;-45
2021/09/12 01:17:46;;;;;;;;;;;;;;;23.46;55.07;100831.28;5055700;28;1101;-44
2021/09/12 01:20:13;;;;;;;;;;;;;;;23.49;55.17;100831.81;5055184;28;1906;-45
2021/09/12 01:22:41;;;;;;;;;;;;;;;23.46;55.09;100847.50;5055587;28;1039;-44
2021/09/12 01:25:10;;;;;;;;;;;;;;;23.48;55.51;100834.72;5055395;28;1080;-45
2021/09/12 01:27:36;;;;;;;;;;;;;;;23.44;55.01;100828.78;5055009;28;1627;-45
2021/09/12 01:30:04;;;;;;;;;;;;;;;23.46;55.03;100831.28;5054492;28;1796;-45
2021/09/12 01:32:30;;;;;;;;;;;;;;;23.44;55.06;100826.09;5055023;28;1135;-45
2021/09/12 01:34:57;;;;;;;;;;;;;;;23.43;55.02;100824.38;5054803;28;1636;-46
2021/09/12 01:37:23;;;;;;;;;;;;;;;23.43;55.14;100817.13;5053986;28;1750;-44
2021/09/12 01:39:50;;;;;;;;;;;;;;;23.46;54.89;100826.75;5054952;28;1541;-45
2021/09/12 01:42:17;;;;;;;;;;;;;;;23.43;55.25;100821.69;5054597;28;1905;-45
2021/09/12 01:44:47;;;;;;;;;;;;;;;23.41;55.19;100821.84;5054408;28;1487;-45
2021/09/12 01:47:14;;;;;;;;;;;;;;;23.41;55.13;100834.50;5054495;28;1527;-45
2021/09/12 01:49:41;;;;;;;;;;;;;;;23.43;55.13;100833.31;5053386;28;1482;-45
2021/09/12 01:52:10;;;;;;;;;;;;;;;23.42;55.10;100834.34;5053765;28;1715;-45
2021/09/12 01:54:37;;;;;;;;;;;;;;;23.40;55.12;100841.75;5054585;28;1500;-45
2021/09/12 01:57:03;;;;;;;;;;;;;;;23.40;54.98;100849.84;5054409;28;1507;-45
2021/09/12 01:59:31;;;;;;;;;;;;;;;23.41;55.17;100845.28;5054773;28;1565;-45
2021/09/12 02:01:58;;;;;;;;;;;;;;;23.42;55.30;100836.19;5167267;22;3778;-45
2021/09/12 02:04:24;;;;;;;;;;;;;;;23.43;55.25;100846.81;5073398;28;989;-44
2021/09/12 02:06:51;;;;;;;;;;;;;;;23.39;55.24;100840.03;5073932;28;1166;-45
2021/09/12 02:09:17;;;;;;;;;;;;;;;23.38;55.35;100835.66;5073995;28;1133;-45
2021/09/12 02:11:43;;;;;;;;;;;;;;;23.38;55.32;100835.66;5065295;28;1640;-46
2021/09/12 02:14:10;;;;;;;;;;;;;;;23.37;55.63;100844.75;5054145;28;1002;-45
2021/09/12 02:16:38;;;;;;;;;;;;;;;23.38;55.62;100845.63;5055177;28;1617;-46
2021/09/12 02:19:04;;;;;;;;;;;;;;;23.39;55.54;100848.16;5054200;28;1062;-47
2021/09/12 02:21:31;;;;;;;;;;;;;;;23.40;55.68;100843.63;5054274;28;1967;-45
2021/09/12 02:23:57;;;;;;;;;;;;;;;23.39;55.61;100839.22;5054260;28;1093;-45
2021/09/12 02:26:24;;;;;;;;;;;;;;;23.40;55.51;100841.75;5062506;28;1644;-44
2021/09/12 02:28:50;;;;;;;;;;;;;;;23.39;55.46;100847.31;5073815;28;1181;-45
2021/09/12 02:31:17;;;;;;;;;;;;;;;23.41;55.62;100843.44;5073933;28;1005;-45
2021/09/12 02:33:45;;;;;;;;;;;;;;;23.40;55.24;100849.84;5054002;28;1941;-45
2021/09/12 02:36:11;;;;;;;;;;;;;;;23.40;55.50;100833.66;5053706;28;1019;-46
2021/09/12 02:38:37;;;;;;;;;;;;;;;23.41;55.49;100834.50;5053561;28;1177;-45
2021/09/12 02:41:04;;;;;;;;;;;;;;;23.39;55.31;100831.94;5053275;28;1926;-44
2021/09/12 02:43:30;;;;;;;;;;;;;;;23.40;55.32;100828.25;5053722;28;1054;-45
2021/09/12 02:45:57;;;;;;;;;;;;;;;23.39;55.37;100840.03;5053693;28;1039;-45
2021/09/12 02:48:24;;;;;;;;;;;;;;;23.37;55.42;100839.38;5054044;28;1760;-45
2021/09/12 02:50:52;;;;;;;;;;;;;;;23.40;55.53;100830.13;5054668;28;1654;-45
2021/09/12 02:53:18;;;;;;;;;;;;;;;23.42;55.55;100837.03;5053892;28;1680;-45
2021/09/12 02:55:45;;;;;;;;;;;;;;;23.44;55.33;100834.19;5054123;28;1547;-45
2021/09/12 02:58:11;;;;;;;;;;;;;;;23.41;55.36;100829.09;5060962;28;1675;-45
2021/09/12 03:00:37;;;;;;;;;;;;;;;23.41;55.39;100838.03;5053159;28;1902;-45
2021/09/12 03:03:04;;;;;;;;;;;;;;;23.40;55.30;100839.06;5054092;28;1844;-45
2021/09/12 03:05:30;;;;;;;;;;;;;;;23.36;55.42;100845.78;5064022;28;1610;-44
2021/09/12 03:07:58;;;;;;;;;;;;;;;23.39;55.32;100853.53;5063027;28;1591;-44
2021/09/12 03:10:25;;;;;;;;;;;;;;;23.42;55.52;100847.84;5069837;28;1947;-45
2021/09/12 03:12:51;;;;;;;;;;;;;;;23.40;55.54;100844.44;5068282;28;1755;-45
2021/09/12 03:15:18;;;;;;;;;;;;;;;23.40;55.44;100849.00;5054807;28;1489;-44
2021/09/12 03:17:44;;;;;;;;;;;;;;;23.40;55.59;100857.94;5065980;28;1590;-46
2021/09/12 03:20:11;;;;;;;;;;;;;;;23.38;55.80;100829.44;5071745;28;1667;-44
2021/09/12 03:22:38;;;;;;;;;;;;;;;23.36;55.43;100847.66;5064397;28;1906;-45
2021/09/12 03:25:06;;;;;;;;;;;;;;;23.34;55.54;100846.97;5055234;28;1667;-46
2021/09/12 03:27:33;;;;;;;;;;;;;;;23.38;55.66;100841.06;5053096;28;1620;-45
2021/09/12 03:29:59;;;;;;;;;;;;;;;23.33;55.25;100856.88;5060382;28;1654;-45
2021/09/12 03:32:26;;;;;;;;;;;;;;;23.35;55.71;100844.06;5064522;28;1638;-45
2021/09/12 03:34:52;;;;;;;;;;;;;;;23.36;55.68;100856.59;5067202;28;1950;-44
2021/09/12 03:37:19;;;;;;;;;;;;;;;23.39;55.68;100850.00;5053246;28;1616;-45
2021/09/12 03:39:45;;;;;;;;;;;;;;;23.35;55.61;100857.56;5053193;28;1650;-44
2021/09/12 03:42:13;;;;;;;;;;;;;;;23.36;55.62;100858.44;5054211;28;1910;-45
2021/09/12 03:44:39;;;;;;;;;;;;;;;23.36;55.74;100859.28;5057260;28;1643;-44
2021/09/12 03:47:06;;;;;;;;;;;;;;;23.38;55.55;100864.53;5053236;28;1560;-44
2021/09/12 03:49:32;;;;;;;;;;;;;;;23.37;55.68;100871.75;5060270;28;1692;-45
2021/09/12 03:51:59;;;;;;;;;;;;;;;23.35;55.82;100862.97;5063526;28;2538;-45
2021/09/12 03:54:25;;;;;;;;;;;;;;;23.34;55.69;100855.06;5062517;28;1442;-45
2021/09/12 03:56:52;;;;;;;;;;;;;;;23.35;56.14;100857.56;5065888;28;1527;-45
2021/09/12 03:59:19;;;;;;;;;;;;;;;23.44;55.62;100877.38;5060925;28;1641;-45
2021/09/12 04:01:46;;;;;;;;;;;;;;;23.40;55.93;100870.59;5068718;28;1992;-45
2021/09/12 04:04:12;;;;;;;;;;;;;;;23.42;56.32;100874.81;5061919;28;1549;-44
2021/09/12 04:06:39;;;;;;;;;;;;;;;23.37;55.18;100874.44;5058907;28;1598;-45
2021/09/12 04:09:05;;;;;;;;;;;;;;;23.37;56.07;100882.53;5064815;28;1264;-44
2021/09/12 04:11:32;;;;;;;;;;;;;;;23.42;56.39;100892.88;5058884;28;1396;-44
2021/09/12 04:13:58;;;;;;;;;;;;;;;23.38;56.72;100876.16;5069622;28;1330;-44
2021/09/12 04:16:26;;;;;;;;;;;;;;;23.38;56.87;100886.94;5063481;28;1389;-45
2021/09/12 04:18:55;;;;;;;;;;;;;;;23.38;56.80;100889.66;5070850;28;1547;-45
2021/09/12 04:21:21;;;;;;;;;;;;;;;23.42;56.83;100888.31;5062924;28;1906;-46
2021/09/12 04:23:50;;;;;;;;;;;;;;;23.41;56.86;100900.09;5061959;28;1725;-45
2021/09/12 04:26:20;;;;;;;;;;;;;;;23.46;57.22;100898.75;5070878;28;1917;-45
2021/09/12 04:28:56;;;;;;;;;;;;;;;23.47;57.43;100914.81;5067966;28;1558;-45
2021/09/12 04:31:25;;;;;;;;;;;;;;;23.43;57.22;100906.19;5066156;28;1463;-46
2021/09/12 04:33:53;;;;;;;;;;;;;;;23.46;57.73;100907.72;5071604;28;1455;-48
2021/09/12 04:36:22;;;;;;;;;;;;;;;23.46;57.50;100886.16;5061177;28;1300;-44
2021/09/12 04:38:52;;;;;;;;;;;;;;;23.55;57.20;100905.91;5061626;28;1666;-47
2021/09/12 04:41:21;;;;;;;;;;;;;;;23.50;57.26;100895.59;5066927;28;1979;-46
2021/09/12 04:43:47;;;;;;;;;;;;;;;23.50;57.36;100905.56;5066019;28;1641;-47
2021/09/12 04:46:18;;;;;;;;;;;;;;;23.48;57.55;100894.09;5073054;28;1588;-46
2021/09/12 04:48:48;;;;;;;;;;;;;;;23.45;57.62;100889.84;5067293;28;1657;-47
2021/09/12 04:51:21;;;;;;;;;;;;;;;23.48;57.69;100929.16;5059323;28;1939;-46
2021/09/12 04:53:51;;;;;;;;;;;;;;;23.46;57.47;100906.88;5072562;28;1512;-47
2021/09/12 04:56:21;;;;;;;;;;;;;;;23.47;57.82;100895.91;5066570;28;1698;-46
2021/09/12 04:58:55;;;;;;;;;;;;;;;23.46;57.88;100909.56;5075029;28;1833;-46
2021/09/12 05:01:22;;;;;;;;;;;;;;;23.48;57.76;100889.53;5073750;28;1882;-46
2021/09/12 05:03:53;;;;;;;;;;;;;;;23.50;57.93;100913.66;5063554;28;1581;-46
2021/09/12 05:06:25;;;;;;;;;;;;;;;23.49;57.74;100896.59;5067409;28;1431;-46
2021/09/12 05:09:02;;;;;;;;;;;;;;;23.37;51.37;100904.13;5072063;28;2037;-46
2021/09/12 05:11:31;;;;;;;;;;;;;;;23.30;50.58;100904.94;5061265;28;1672;-46
2021/09/12 05:13:58;;;;;;;;;;;;;;;23.30;51.88;100908.50;5062037;28;1526;-46
2021/09/12 05:16:28;;;;;;;;;;;;;;;23.33;53.13;100908.16;5060890;28;1627;-46
2021/09/12 05:21:36;;;;;;;;;;;;;;;23.45;54.95;100915.97;5071155;28;1898;-47
2021/09/12 05:24:03;;;;;;;;;;;;;;;23.43;54.64;100908.88;5070234;28;1292;-46
2021/09/12 05:26:33;;;;;;;;;;;;;;;23.48;54.85;100899.47;5058855;28;1733;-46
2021/09/12 05:29:00;;;;;;;;;;;;;;;23.51;54.80;100893.75;5063224;28;1947;-46
2021/09/12 05:31:26;;;;;;;;;;;;;;;23.56;55.05;100911.16;5068196;28;1733;-46
2021/09/12 05:33:58;;;;;;;;;;;;;;;23.55;54.78;100906.75;5053348;28;1699;-47
2021/09/12 05:36:25;;;;;;;;;;;;;;;23.57;55.34;100909.28;5059044;28;1561;-46
2021/09/12 05:38:53;;;;;;;;;;;;;;;23.60;55.13;100903.56;5061106;28;1892;-47
2021/09/12 05:41:19;;;;;;;;;;;;;;;23.66;54.80;100904.78;5064590;28;2737;-46
2021/09/12 05:43:46;;;;;;;;;;;;;;;23.66;55.92;100911.03;5058858;28;2056;-47
2021/09/12 05:46:12;;;;;;;;;;;;;;;23.65;55.56;100893.13;5067205;28;1640;-47
2021/09/12 05:48:38;;;;;;;;;;;;;;;23.68;56.18;100889.28;5060426;28;1407;-47
2021/09/12 05:51:05;;;;;;;;;;;;;;;23.67;55.44;100893.81;5058662;28;1639;-44
2021/09/12 05:53:31;;;;;;;;;;;;;;;23.71;55.37;100897.84;5068379;28;1527;-46
2021/09/12 05:56:00;;;;;;;;;;;;;;;23.72;55.94;100885.22;5071093;28;1426;-46
2021/09/12 05:58:26;;;;;;;;;;;;;;;23.72;52.56;100894.16;5065724;28;2800;-47
2021/09/12 06:00:53;;;;;;;;;;;;;;;23.79;49.60;100884.41;5062927;28;2026;-45
2021/09/12 06:03:19;;;;;;;;;;;;;;;23.75;48.48;100890.28;5062188;28;1906;-51
2021/09/12 06:05:45;;;;;;;;;;;;;;;23.77;47.75;100881.03;5061972;28;1600;-46
2021/09/12 06:08:12;;;;;;;;;;;;;;;23.76;47.26;100882.03;5068899;28;1717;-50
2021/09/12 06:10:38;;;;;;;;;;;;;;;23.76;49.81;100887.44;5064315;28;1609;-49
2021/09/12 06:13:06;;;;;;;;;;;;;;;23.86;48.76;100905.38;5065646;28;1661;-53
2021/09/12 06:15:33;;;;;;;;;;;;;;;23.90;50.08;100898.66;5062780;28;1995;-49
2021/09/12 06:17:59;;;;;;;;;;;;;;;23.86;47.33;100894.59;5067642;28;1896;-52
2021/09/12 06:20:26;;;;;;;;;;;;;;;23.89;48.86;100892.38;5066772;28;1573;-52
2021/09/12 06:22:53;;;;;;;;;;;;;;;23.76;47.84;100903.63;5064255;28;1903;-53
2021/09/12 06:25:20;;;;;;;;;;;;;;;23.75;49.20;100899.22;5069079;28;1565;-53
2021/09/12 06:27:47;;;;;;;;;;;;;;;23.81;47.99;100906.72;5065277;28;1698;-52
2021/09/12 06:30:17;;;;;;;;;;;;;;;23.85;51.54;100893.72;5065557;28;1672;-51
2021/09/12 06:32:43;;;;;;;;;;;;;;;23.86;51.45;100881.09;5064579;28;1343;-53
2021/09/12 06:35:10;;;;;;;;;;;;;;;23.94;52.35;100897.31;5064793;28;1762;-51
2021/09/12 06:37:37;;;;;;;;;;;;;;;23.95;51.82;100894.41;5065521;28;1404;-51
2021/09/12 06:40:04;;;;;;;;;;;;;;;24.02;52.36;100903.56;5063937;28;1412;-51
2021/09/12 06:42:31;;;;;;;;;;;;;;;24.07;51.82;100894.94;5063721;28;1906;-51
2021/09/12 06:44:57;;;;;;;;;;;;;;;24.06;51.16;100898.69;5062438;28;1531;-51
2021/09/12 06:47:25;;;;;;;;;;;;;;;24.06;51.29;100895.13;5061436;28;1522;-52
2021/09/12 06:49:51;;;;;;;;;;;;;;;24.08;52.31;100902.06;5062531;28;1372;-51
2021/09/12 06:52:19;;;;;;;;;;;;;;;24.12;51.83;100902.56;5063886;28;1599;-52
2021/09/12 06:54:46;;;;;;;;;;;;;;;24.16;53.24;100888.56;5063180;28;1350;-51
2021/09/12 06:57:12;;;;;;;;;;;;;;;24.17;52.68;100901.06;5063636;28;1679;-51
2021/09/12 07:02:41;;;;;;;;;;;;;;;24.15;49.73;100889.59;5068457;28;2711;-51
2021/09/12 07:05:12;;;;;;;;;;;;;;;23.90;47.53;100898.66;5064933;28;1605;-51
2021/09/12 07:07:39;;;;;;;;;;;;;;;23.76;49.01;100884.72;5070816;28;1656;-51
2021/09/12 07:10:14;;;;;;;;;;;;;;;23.81;48.71;100884.25;5068485;28;1685;-52
2021/09/12 07:12:44;;;;;;;;;;;;;;;23.95;50.34;100890.88;5070248;28;1587;-51
2021/09/12 07:15:12;;;;;;;;;;;;;;;24.13;49.57;100883.50;5070560;28;1569;-51
2021/09/12 07:17:40;;;;;;;;;;;;;;;24.20;48.98;100889.06;5063339;28;1607;-51
2021/09/12 07:20:08;;;;;;;;;;;;;;;24.24;49.58;100885.03;5063665;28;1574;-51
2021/09/12 07:22:51;;;;;;;;;;;;;;;24.29;51.68;100876.41;5067989;28;1926;-50
2021/09/12 07:25:27;;;;;;;;;;;;;;;24.28;51.42;100882.84;5063657;28;1662;-50
2021/09/12 07:27:59;;;;;;;;;;;;;;;24.26;52.88;100888.41;5070699;28;1826;-50
2021/09/12 07:30:26;;;;;;;;;;;;;;;24.25;53.20;100899.38;5064543;28;1763;-51
2021/09/12 07:32:54;;;;;;;;;;;;;;;24.15;54.45;100886.88;5070362;28;1615;-50
2021/09/12 07:35:24;;;;;;;;;;;;;;;24.12;54.19;100887.19;5063062;28;1820;-50
2021/09/12 07:37:53;;;;;;;;;;;;;;;24.14;54.26;100890.59;5060846;28;1666;-51
2021/09/12 07:40:23;;;;;;;;;;;;;;;24.15;52.33;100880.63;5062929;28;1669;-51
2021/09/12 07:42:50;;;;;;;;;;;;;;;24.17;53.73;100873.19;5072375;28;1914;-51
2021/09/12 07:45:18;;;;;;;;;;;;;;;24.19;52.59;100876.56;5065425;28;1701;-51
2021/09/12 07:47:46;;;;;;;;;;;;;;;24.21;52.35;100886.22;5066776;28;1969;-51
2021/09/12 07:50:17;;;;;;;;;;;;;;;24.21;53.77;100875.41;5068309;28;1460;-52
2021/09/12 07:52:44;;;;;;;;;;;;;;;24.20;54.58;100881.81;5060467;28;1767;-50
2021/09/12 07:55:11;;;;;;;;;;;;;;;24.27;53.65;100878.44;5060580;28;1579;-55
2021/09/12 07:57:40;;;;;;;;;;;;;;;24.29;54.86;100881.81;5055982;28;1931;-51
2021/09/12 08:00:08;;;;;;;;;;;;;;;24.24;49.31;100873.38;5066758;28;1536;-50
2021/09/12 08:02:36;;;;;;;;;;;;;;;23.75;47.73;100865.97;5066830;28;1906;-50
2021/09/12 08:05:03;;;;;;;;;;;;;;;23.55;47.76;100868.13;5069631;28;1885;-50
2021/09/12 08:07:33;;;;;;;;;;;;;;;23.65;47.68;100868.81;5060151;28;1603;-50
2021/09/12 08:10:01;;;;;;;;;;;;;;;23.52;47.77;100869.28;5065683;28;2785;-52
2021/09/12 08:12:29;;;;;;;;;;;;;;;23.64;51.12;100856.34;5063503;28;1511;-51
2021/09/12 08:15:04;;;;;;;;;;;;;;;23.93;52.03;100855.91;5070289;28;1548;-51
2021/09/12 08:17:32;;;;;;;;;;;;;;;24.13;50.35;100861.88;5069519;28;1934;-51
2021/09/12 08:19:58;;;;;;;;;;;;;;;24.18;51.19;100855.97;5064694;28;1585;-51
2021/09/12 08:22:27;;;;;;;;;;;;;;;24.30;52.77;100859.19;5061066;28;1905;-51
2021/09/12 08:24:55;;;;;;;;;;;;;;;24.28;50.90;100859.34;5069179;28;1598;-51
2021/09/12 08:27:22;;;;;;;;;;;;;;;24.12;51.91;100865.59;5068659;28;1741;-51
2021/09/12 08:29:48;;;;;;;;;;;;;;;24.04;52.54;100867.44;5067510;28;1511;-51
2021/09/12 08:32:16;;;;;;;;;;;;;;;23.98;51.73;100866.25;5070528;28;1501;-51
2021/09/12 08:34:42;;;;;;;;;;;;;;;24.01;52.30;100860.50;5069217;28;1536;-51
2021/09/12 08:37:09;;;;;;;;;;;;;;;24.04;52.42;100873.69;5070797;28;1514;-51
2021/09/12 08:39:35;;;;;;;;;;;;;;;24.01;52.03;100849.69;5069128;28;1266;-51
2021/09/12 08:42:02;;;;;;;;;;;;;;;23.99;51.54;100865.22;5069829;28;1925;-51
2021/09/12 08:44:28;;;;;;;;;;;;;;;23.98;51.93;100842.78;5067688;28;1906;-51
2021/09/12 08:46:55;;;;;;;;;;;;;;;24.01;51.89;100866.78;5074180;28;1544;-51
2021/09/12 08:49:23;;;;;;;;;;;;;;;23.98;51.34;100848.19;5071640;28;1532;-51
2021/09/12 08:51:49;;;;;;;;;;;;;;;23.99;51.76;100855.28;5074052;28;1558;-51
2021/09/12 08:54:16;;;;;;;;;;;;;;;24.01;51.37;100849.69;5071211;28;1483;-51
2021/09/12 08:56:42;;;;;;;;;;;;;;;23.98;51.52;100847.34;5069000;28;1466;-51
2021/09/12 08:59:28;;;;;;;;;;;;;;;23.98;51.52;100841.94;5065796;28;1675;-51
2021/09/12 09:01:56;;;;;;;;;;;;;;;23.95;51.60;100826.88;5073777;28;1839;-51
2021/09/12 09:04:25;;;;;;;;;;;;;;;23.97;50.91;100821.31;5073755;28;2037;-51
2021/09/12 09:06:58;;;;;;;;;;;;;;;23.99;51.43;100836.38;5064048;28;1565;-51
2021/09/12 09:09:37;;;;;;;;;;;;;;;23.97;51.39;100835.69;5069696;28;1647;-51
2021/09/12 09:12:19;;;;;;;;;;;;;;;23.94;51.47;100824.38;5066667;28;1634;-51
2021/09/12 09:14:45;;;;;;;;;;;;;;;23.99;51.27;100835.50;5066721;28;1531;-51
2021/09/12 09:17:19;;;;;;;;;;;;;;;23.96;51.08;100825.06;5072383;28;1639;-51
2021/09/12 09:19:52;;;;;;;;;;;;;;;23.99;51.07;100827.41;5064975;28;1428;-51
2021/09/12 09:22:28;;;;;;;;;;;;;;;24.01;50.92;100830.78;5073031;28;1559;-51
2021/09/12 09:24:57;;;;;;;;;;;;;;;23.98;50.60;100820.31;5072201;28;1967;-51
2021/09/12 09:27:24;;;;;;;;;;;;;;;23.99;50.87;100822.00;5062913;28;1702;-51
2021/09/12 09:29:54;;;;;;;;;;;;;;;23.98;50.55;100814.94;5072734;28;1588;-51
2021/09/12 09:32:20;;;;;;;;;;;;;;;24.01;50.87;100822.69;5067908;28;1638;-52
2021/09/12 09:34:50;;;;;;;;;;;;;;;24.00;50.70;100826.41;5064371;28;1684;-52
2021/09/12 09:37:23;;;;;;;;;;;;;;;23.94;50.77;100813.56;5076671;28;1320;-51
2021/09/12 09:39:54;;;;;;;;;;;;;;;23.99;51.02;100819.31;5057803;28;1516;-51
2021/09/12 09:42:38;;;;;;;;;;;;;;;23.94;50.51;100797.38;5069760;28;1531;-51
2021/09/12 09:45:25;;;;;;;;;;;;;;;23.98;50.78;100801.41;5067712;28;1851;-51
2021/09/12 09:47:52;;;;;;;;;;;;;;;23.98;50.78;100796.03;5069441;28;1460;-51
2021/09/12 09:50:24;;;;;;;;;;;;;;;23.98;50.41;100787.91;5060673;28;1492;-51
2021/09/12 09:52:57;;;;;;;;;;;;;;;24.00;50.80;100812.91;5073703;28;1614;-51
2021/09/12 09:55:25;;;;;;;;;;;;;;;23.97;50.43;100787.09;5069146;28;1490;-51
2021/09/12 09:58:06;;;;;;;;;;;;;;;23.99;50.55;100797.69;5063483;28;2514;-51
2021/09/12 10:00:34;;;;;;;;;;;;;;;23.98;50.39;100791.47;5064057;28;1391;-51
2021/09/12 10:03:04;;;;;;;;;;;;;;;23.98;50.20;100787.91;5067278;28;1902;-51
2021/09/12 10:05:35;;;;;;;;;;;;;;;23.99;50.21;100792.28;5068459;28;2045;-51
2021/09/12 10:08:06;;;;;;;;;;;;;;;23.97;50.12;100776.28;5065449;28;1770;-51
2021/09/12 10:10:41;;;;;;;;;;;;;;;23.96;50.11;100773.75;5073960;28;1519;-51
2021/09/12 10:13:09;;;;;;;;;;;;;;;23.96;50.01;100776.44;5069682;28;1377;-50
2021/09/12 10:15:40;;;;;;;;;;;;;;;23.97;50.08;100775.41;5058351;28;1727;-51
2021/09/12 10:18:21;;;;;;;;;;;;;;;23.98;50.46;100787.91;5058641;28;1834;-51
2021/09/12 10:20:50;;;;;;;;;;;;;;;23.99;49.92;100765.28;5062310;28;1546;-51
2021/09/12 10:23:28;;;;;;;;;;;;;;;23.98;49.92;100775.25;5062003;28;1980;-51
2021/09/12 10:26:01;;;;;;;;;;;;;;;24.00;49.62;100775.91;5062866;28;1490;-51
2021/09/12 10:28:29;;;;;;;;;;;;;;;23.99;49.81;100778.78;5067799;28;1352;-51
2021/09/12 10:30:58;;;;;;;;;;;;;;;23.98;49.57;100769.84;5071174;28;1635;-51
2021/09/12 10:33:30;;;;;;;;;;;;;;;24.04;49.64;100781.84;5061133;28;1548;-50
2021/09/12 10:36:01;;;;;;;;;;;;;;;24.03;49.82;100769.34;5069142;28;1693;-51
2021/09/12 10:38:33;;;;;;;;;;;;;;;24.05;49.66;100772.69;5057826;28;1658;-51
2021/09/12 10:41:27;;;;;;;;;;;;;;;24.02;49.84;100773.06;5070266;28;1394;-50
2021/09/12 10:43:56;;;;;;;;;;;;;;;24.02;49.78;100773.06;5061878;28;1969;-51
2021/09/12 10:46:26;;;;;;;;;;;;;;;24.00;49.38;100770.53;5063071;28;1366;-51
2021/09/12 10:49:12;;;;;;;;;;;;;;;23.99;49.78;100759.88;5059168;28;1343;-52
2021/09/12 10:51:42;;;;;;;;;;;;;;;23.98;49.44;100744.69;5066789;28;1601;-51
2021/09/12 10:54:22;;;;;;;;;;;;;;;24.02;49.86;100762.25;5070965;28;1378;-51
2021/09/12 10:57:13;;;;;;;;;;;;;;;23.97;49.33;100749.25;5067702;28;1449;-51
2021/09/12 10:59:43;;;;;;;;;;;;;;;23.98;49.08;100744.69;5059506;28;1424;-51
2021/09/12 11:02:17;;;;;;;;;;;;;;;24.03;49.29;100745.00;5063623;28;1514;-51
2021/09/12 11:04:43;;;;;;;;;;;;;;;24.02;48.88;100748.75;5064592;28;1980;-51
2021/09/12 11:07:10;;;;;;;;;;;;;;;24.02;49.01;100752.28;5062270;28;1572;-51
2021/09/12 11:09:42;;;;;;;;;;;;;;;24.03;48.78;100745.00;5067894;28;1544;-51
2021/09/12 11:12:10;;;;;;;;;;;;;;;24.03;49.06;100739.63;5063362;28;1684;-51
2021/09/12 11:14:37;;;;;;;;;;;;;;;24.02;48.80;100756.84;5070837;28;1582;-51
2021/09/12 11:17:05;;;;;;;;;;;;;;;23.97;49.18;100726.78;5072060;28;1590;-51
2021/09/12 11:19:31;;;;;;;;;;;;;;;24.01;48.81;100742.50;5072297;28;1569;-51
2021/09/12 11:22:00;;;;;;;;;;;;;;;23.96;49.08;100725.97;5071891;28;1687;-51
2021/09/12 11:24:28;;;;;;;;;;;;;;;24.03;49.29;100742.31;5066495;28;1906;-51
2021/09/12 11:26:57;;;;;;;;;;;;;;;23.99;48.87;100720.22;5068347;28;1526;-51
2021/09/12 11:29:25;;;;;;;;;;;;;;;23.99;48.60;100731.03;5071122;28;1530;-51
2021/09/12 11:31:52;;;;;;;;;;;;;;;23.98;48.64;100717.69;5072433;28;2414;-51
2021/09/12 11:34:20;;;;;;;;;;;;;;;24.02;48.47;100733.38;5064702;28;1549;-51
2021/09/12 11:36:48;;;;;;;;;;;;;;;24.02;48.62;100716.34;5074782;28;1519;-51
2021/09/12 11:39:15;;;;;;;;;;;;;;;24.00;48.66;100711.09;5069317;28;1588;-51
2021/09/12 11:41:42;;;;;;;;;;;;;;;24.03;48.68;100707.19;5070499;28;1754;-51
2021/09/12 11:44:10;;;;;;;;;;;;;;;24.05;48.32;100707.88;5069145;28;1975;-51
2021/09/12 11:46:42;;;;;;;;;;;;;;;24.02;48.46;100700.97;5073259;28;1519;-51
2021/09/12 11:49:09;;;;;;;;;;;;;;;24.02;48.58;100703.66;5076012;28;1640;-51
2021/09/12 11:51:37;;;;;;;;;;;;;;;24.01;48.15;100706.53;5073985;28;1948;-51
2021/09/12 11:54:04;;;;;;;;;;;;;;;24.01;48.50;100687.63;5075950;28;1326;-51
2021/09/12 11:56:30;;;;;;;;;;;;;;;23.99;48.18;100676.13;5075268;28;1736;-51
2021/09/12 11:58:57;;;;;;;;;;;;;;;24.04;48.59;100690.00;5073583;28;1952;-51
2021/09/12 12:01:25;;;;;;;;;;;;;;;24.04;48.41;100681.06;5071531;28;1514;-51
2021/09/12 12:03:52;;;;;;;;;;;;;;;23.99;48.50;100673.44;5076333;28;1909;-52
2021/09/12 12:06:19;;;;;;;;;;;;;;;24.00;48.39;100667.88;5074431;28;1449;-51
2021/09/12 12:09:00;;;;;;;;;;;;;;;24.02;48.35;100662.31;5071932;28;2017;-51
2021/09/12 12:11:26;;;;;;;;;;;;;;;24.01;48.35;100664.19;5070354;28;2012;-51
2021/09/12 12:13:53;;;;;;;;;;;;;;;24.03;48.40;100666.69;5067269;28;1582;-51
2021/09/12 12:16:19;;;;;;;;;;;;;;;24.02;48.22;100665.84;5071090;28;1410;-51
2021/09/12 12:19:00;;;;;;;;;;;;;;;24.05;48.41;100675.47;5062205;28;1686;-51
2021/09/12 12:21:29;;;;;;;;;;;;;;;24.04;48.14;100662.16;5071361;28;1432;-51
2021/09/12 12:23:58;;;;;;;;;;;;;;;24.07;48.25;100657.22;5067545;28;1914;-51
2021/09/12 12:26:28;;;;;;;;;;;;;;;24.18;48.55;100658.72;5065085;28;1783;-51
2021/09/12 12:28:58;;;;;;;;;;;;;;;24.19;48.54;100661.28;5069640;28;1678;-51
2021/09/12 12:31:25;;;;;;;;;;;;;;;24.16;48.53;100650.78;5071555;28;1600;-50
2021/09/12 12:36:35;;;;;;;;;;;;;;;24.15;48.48;100653.66;5065069;28;2448;-52
2021/09/12 12:39:30;;;;;;;;;;;;;;;24.18;48.59;100645.22;5075385;28;1541;-51
2021/09/12 12:41:58;;;;;;;;;;;;;;;24.18;48.81;100654.16;5064998;28;1501;-51
2021/09/12 12:44:31;;;;;;;;;;;;;;;24.14;48.55;100642.03;5074357;28;1983;-52
2021/09/12 12:47:00;;;;;;;;;;;;;;;24.15;48.75;100646.41;5067166;28;1630;-51
2021/09/12 12:49:33;;;;;;;;;;;;;;;24.15;48.70;100654.53;5071296;28;1582;-52
2021/09/12 12:52:04;;;;;;;;;;;;;;;24.13;49.13;100632.25;5073270;28;2010;-51
2021/09/12 12:54:36;;;;;;;;;;;;;;;24.10;48.66;100624.47;5066323;28;1622;-52
2021/09/12 12:57:08;;;;;;;;;;;;;;;24.09;49.41;100632.75;5069420;28;1620;-51
2021/09/12 12:59:36;;;;;;;;;;;;;;;24.17;49.13;100632.72;5065248;28;1538;-52
2021/09/12 13:02:05;;;;;;;;;;;;;;;24.25;49.27;100626.44;5066235;28;1639;-51
2021/09/12 13:04:35;;;;;;;;;;;;;;;24.24;50.02;100622.91;5071578;28;1906;-51